createdAt,value
2022-10-23T00:05:03.100Z,94028.88
2022-10-23T00:10:12.110Z,94033.93
2022-10-23T00:15:22.181Z,94029.91
2022-10-23T00:20:29.218Z,94031.07
2022-10-23T00:25:36.273Z,94032.56
2022-10-23T00:30:43.303Z,94019.39
2022-10-23T00:35:50.254Z,94024.19
2022-10-23T00:40:57.305Z,94024.17
2022-10-23T00:46:04.308Z,94024.27
2022-10-23T00:51:11.224Z,94022.92
2022-10-23T00:56:18.277Z,94027.31
2022-10-23T01:01:26.426Z,94037.64
2022-10-23T01:06:43.924Z,94041.78
2022-10-23T01:12:03.027Z,94028.47
2022-10-23T01:17:28.935Z,94019.10
2022-10-23T01:23:18.549Z,94020.56
2022-10-23T01:28:44.198Z,94018.83
2022-10-23T01:33:55.499Z,94034.02
2022-10-23T01:39:09.234Z,94030.56
2022-10-23T01:44:39.366Z,94026.09
2022-10-23T01:49:48.645Z,94023.38
2022-10-23T01:54:58.416Z,94020.75
2022-10-23T02:00:12.765Z,94018.87
2022-10-23T02:05:26.073Z,94020.89
2022-10-23T02:10:37.309Z,94019.06
2022-10-23T02:15:50.457Z,94028.30
2022-10-23T02:21:01.464Z,94023.77
2022-10-23T02:26:15.778Z,94021.12
2022-10-23T02:31:24.652Z,94010.83
2022-10-23T02:36:31.661Z,94006.31
2022-10-23T02:41:54.097Z,94006.73
2022-10-23T02:47:24.458Z,93998.12
2022-10-23T02:52:47.313Z,93996.27
2022-10-23T02:58:04.410Z,94003.89
2022-10-23T03:03:27.422Z,94002.87
2022-10-23T03:08:53.061Z,94004.80
2022-10-23T03:13:59.786Z,94004.29
2022-10-23T03:19:06.551Z,93998.38
2022-10-23T03:24:13.788Z,93995.66
2022-10-23T03:29:20.834Z,93997.81
2022-10-23T03:34:27.875Z,93994.37
2022-10-23T03:39:35.295Z,93987.89
2022-10-23T03:44:42.271Z,93991.09
2022-10-23T03:49:48.898Z,93989.88
2022-10-23T03:54:55.547Z,93986.42
2022-10-23T04:00:03.007Z,93984.67
2022-10-23T04:05:10.154Z,93984.52
2022-10-23T04:10:16.950Z,93983.66
2022-10-23T04:15:23.625Z,93982.09
2022-10-23T04:20:30.397Z,93977.30
2022-10-23T04:25:37.160Z,93974.53
2022-10-23T04:30:43.919Z,93979.13
2022-10-23T04:35:50.708Z,93965.78
2022-10-23T04:40:57.853Z,93965.16
2022-10-23T04:46:04.707Z,93958.83
2022-10-23T04:51:12.502Z,93956.77
2022-10-23T04:56:19.262Z,93960.93
2022-10-23T05:01:26.050Z,93962.61
2022-10-23T05:06:32.666Z,93955.70
2022-10-23T05:11:39.373Z,93955.50
2022-10-23T05:17:04.255Z,93957.69
2022-10-23T05:22:12.477Z,93955.00
2022-10-23T05:27:19.278Z,93961.09
2022-10-23T05:32:30.072Z,93956.77
2022-10-23T05:37:39.713Z,93957.12
2022-10-23T05:42:46.863Z,93950.80
2022-10-23T05:47:56.561Z,93957.12
2022-10-23T05:53:02.262Z,93952.98
2022-10-23T05:58:09.085Z,93955.92
2022-10-23T06:03:16.967Z,93963.05
2022-10-23T06:08:24.672Z,93962.31
2022-10-23T06:13:31.315Z,93958.38
2022-10-23T06:18:37.991Z,93956.78
2022-10-23T06:23:45.973Z,93968.20
2022-10-23T06:28:52.691Z,93968.55
2022-10-23T06:34:00.923Z,93979.63
2022-10-23T06:39:08.579Z,93989.92
2022-10-23T06:44:15.377Z,93991.36
2022-10-23T06:49:22.060Z,93981.17
2022-10-23T06:54:28.786Z,93975.50
2022-10-23T06:59:35.454Z,93978.50
2022-10-23T07:04:42.205Z,93993.02
2022-10-23T07:09:48.852Z,93999.33
2022-10-23T07:14:55.541Z,93997.05
2022-10-23T07:20:02.322Z,93989.73
2022-10-23T07:25:09.771Z,93986.82
2022-10-23T07:30:17.477Z,93993.98
2022-10-23T07:35:25.377Z,93993.45
2022-10-23T07:40:32.058Z,93988.66
2022-10-23T07:45:38.973Z,93986.45
2022-10-23T07:50:45.732Z,93990.53
2022-10-23T07:56:04.033Z,93993.78
2022-10-23T08:01:19.922Z,93988.22
2022-10-23T08:06:26.918Z,93986.86
2022-10-23T08:11:35.177Z,93981.88
2022-10-23T08:16:41.932Z,93983.20
2022-10-23T08:21:48.616Z,93978.41
2022-10-23T08:26:55.290Z,93976.01
2022-10-23T08:32:02.491Z,93972.03
2022-10-23T08:37:09.592Z,93969.66
2022-10-23T08:42:25.366Z,93963.52
2022-10-23T08:47:46.230Z,93972.02
2022-10-23T08:53:18.372Z,93979.73
2022-10-23T08:58:32.544Z,93979.20
2022-10-23T09:03:39.227Z,93984.52
2022-10-23T09:09:40.409Z,93991.16
2022-10-23T09:15:37.156Z,93984.77
2022-10-23T09:20:44.164Z,93988.22
2022-10-23T09:25:54.066Z,94001.48
2022-10-23T09:31:12.825Z,93990.28
2022-10-23T09:36:24.480Z,93989.22
2022-10-23T09:41:42.112Z,93990.27
2022-10-23T09:46:54.865Z,93992.14
2022-10-23T09:52:16.519Z,93983.27
2022-10-23T09:57:27.547Z,93980.77
2022-10-23T10:02:37.612Z,93967.34
2022-10-23T10:07:47.530Z,93961.67
2022-10-23T10:13:00.419Z,93963.34
2022-10-23T10:18:16.591Z,93954.56
2022-10-23T10:23:56.158Z,93947.61
2022-10-23T10:29:28.183Z,93945.09
2022-10-23T10:35:03.078Z,93945.19
2022-10-23T10:40:29.294Z,93934.50
2022-10-23T10:45:42.503Z,93931.18
2022-10-23T10:51:05.221Z,93936.19
2022-10-23T10:56:17.629Z,93926.81
2022-10-23T11:01:46.679Z,93917.19
2022-10-23T11:06:56.107Z,93917.44
2022-10-23T11:12:26.448Z,93909.97
2022-10-23T11:17:42.358Z,93903.97
2022-10-23T11:23:39.549Z,93904.21
2022-10-23T11:29:23.931Z,93885.61
2022-10-23T11:35:11.233Z,93884.69
2022-10-23T11:40:26.956Z,93874.03
2022-10-23T11:45:44.025Z,93879.55
2022-10-23T11:50:59.104Z,93881.10
2022-10-23T11:56:20.176Z,93877.96
2022-10-23T12:01:37.563Z,93879.61
2022-10-23T12:06:51.909Z,93859.52
2022-10-23T12:12:11.959Z,93839.98
2022-10-23T12:17:35.906Z,93838.60
2022-10-23T12:23:02.156Z,93830.03
2022-10-23T12:28:40.503Z,93817.77
2022-10-23T12:33:51.874Z,93805.58
2022-10-23T12:38:59.234Z,93802.07
2022-10-23T12:44:07.690Z,93804.41
2022-10-23T12:49:22.062Z,93787.06
2022-10-23T12:54:32.312Z,93789.93
2022-10-23T12:59:44.947Z,93787.02
2022-10-23T13:04:55.350Z,93777.70
2022-10-23T13:10:05.200Z,93775.02
2022-10-23T13:15:19.748Z,93769.05
2022-10-23T13:20:39.651Z,93766.22
2022-10-23T13:25:57.771Z,93772.52
2022-10-23T13:31:09.051Z,93760.19
2022-10-23T13:36:21.125Z,93767.31
2022-10-23T13:41:31.811Z,93769.70
2022-10-23T13:46:39.726Z,93760.41
2022-10-23T13:51:59.686Z,93761.52
2022-10-23T13:57:10.151Z,93753.86
2022-10-23T14:02:25.716Z,93752.52
2022-10-23T14:07:33.475Z,93748.16
2022-10-23T14:12:45.575Z,93743.10
2022-10-23T14:17:58.002Z,93752.39
2022-10-23T14:23:01.126Z,93748.24
2022-10-23T14:28:07.775Z,93748.58
2022-10-23T14:33:15.242Z,93748.84
2022-10-23T14:38:21.948Z,93747.34
2022-10-23T14:43:29.089Z,93743.20
2022-10-23T14:48:37.414Z,93748.78
2022-10-23T14:53:44.681Z,93737.45
2022-10-23T14:58:51.854Z,93729.95
2022-10-23T15:03:59.097Z,93736.31
2022-10-23T15:09:06.774Z,93736.20
2022-10-23T15:14:13.991Z,93733.85
2022-10-23T15:19:21.031Z,93726.97
2022-10-23T15:24:27.874Z,93727.52
2022-10-23T15:29:35.133Z,93731.02
2022-10-23T15:34:43.673Z,93727.26
2022-10-23T15:39:50.688Z,93727.90
2022-10-23T15:44:58.661Z,93723.80
2022-10-23T15:50:05.800Z,93732.59
2022-10-23T15:55:13.015Z,93738.77
2022-10-23T16:00:20.731Z,93740.01
2022-10-23T16:05:28.650Z,93730.38
2022-10-23T16:10:35.378Z,93738.58
2022-10-23T16:15:42.917Z,93732.20
2022-10-23T16:20:51.357Z,93738.80
2022-10-23T16:25:59.278Z,93736.96
2022-10-23T16:31:14.459Z,93739.17
2022-10-23T16:36:23.291Z,93734.84
2022-10-23T16:41:30.885Z,93736.64
2022-10-23T16:46:40.660Z,93733.41
2022-10-23T16:51:49.094Z,93730.59
2022-10-23T16:56:58.560Z,93740.64
2022-10-23T17:02:06.152Z,93760.56
2022-10-23T17:07:13.921Z,93762.86
2022-10-23T17:12:21.501Z,93763.66
2022-10-23T17:17:29.210Z,93757.16
2022-10-23T17:22:38.406Z,93763.73
2022-10-23T17:27:47.580Z,93758.14
2022-10-23T17:32:58.219Z,93752.53
2022-10-23T17:38:03.133Z,93745.51
2022-10-23T17:43:09.796Z,93763.41
2022-10-23T17:48:17.966Z,93763.12
2022-10-23T17:53:25.721Z,93764.41
2022-10-23T17:58:33.457Z,93766.47
2022-10-23T18:03:43.134Z,93755.27
2022-10-23T18:08:52.576Z,93762.26
2022-10-23T18:14:01.974Z,93767.12
2022-10-23T18:19:09.297Z,93762.08
2022-10-23T18:24:16.440Z,93759.70
2022-10-23T18:29:24.207Z,93761.56
2022-10-23T18:34:30.995Z,93756.20
2022-10-23T18:39:38.125Z,93755.84
2022-10-23T18:44:46.790Z,93753.43
2022-10-23T18:49:53.779Z,93747.05
2022-10-23T18:55:00.731Z,93746.33
2022-10-23T19:00:12.195Z,93747.12
2022-10-23T19:05:19.326Z,93736.55
2022-10-23T19:10:33.216Z,93743.52
2022-10-23T19:15:39.094Z,93735.02
2022-10-23T19:20:47.948Z,93730.00
2022-10-23T19:31:16.082Z,93723.80
2022-10-23T19:36:24.242Z,93725.79
2022-10-23T19:41:32.559Z,93731.13
2022-10-23T19:46:39.967Z,93728.05
2022-10-23T19:51:51.365Z,93732.22
2022-10-23T19:56:58.152Z,93725.09
2022-10-23T20:02:05.418Z,93723.63
2022-10-23T20:07:13.666Z,93711.34
2022-10-23T20:12:21.808Z,93711.70
2022-10-23T20:17:28.818Z,93707.29
2022-10-23T20:22:40.573Z,93719.10
2022-10-23T20:27:46.077Z,93728.11
2022-10-23T20:32:53.416Z,93735.41
2022-10-23T20:38:00.351Z,93730.69
2022-10-23T20:43:07.525Z,93731.56
2022-10-23T20:48:14.898Z,93728.76
2022-10-23T20:53:21.652Z,93737.64
2022-10-23T20:58:30.036Z,93735.43
2022-10-23T21:03:40.345Z,93736.95
2022-10-23T21:08:49.228Z,93744.63
2022-10-23T21:13:58.056Z,93734.58
2022-10-23T21:19:07.314Z,93720.39
2022-10-23T21:24:17.222Z,93718.63
2022-10-23T21:29:24.107Z,93710.36
2022-10-23T21:34:33.607Z,93713.08
2022-10-23T21:39:40.521Z,93709.53
2022-10-23T21:44:48.698Z,93712.49
2022-10-23T21:49:56.104Z,93712.04
2022-10-23T21:55:03.506Z,93700.46
2022-10-23T22:00:13.062Z,93692.80
2022-10-23T22:05:20.187Z,93691.49
2022-10-23T22:10:27.556Z,93691.10
2022-10-23T22:15:34.486Z,93689.59
2022-10-23T22:20:41.697Z,93691.61
2022-10-23T22:25:48.547Z,93693.94
2022-10-23T22:30:55.625Z,93690.19
2022-10-23T22:36:06.917Z,93692.95
2022-10-23T22:41:14.893Z,93693.50
2022-10-23T22:46:21.961Z,93693.35
2022-10-23T22:51:31.480Z,93701.52
2022-10-23T22:56:39.047Z,93702.65
2022-10-23T23:01:49.006Z,93703.83
2022-10-23T23:06:56.012Z,93704.62
2022-10-23T23:12:03.092Z,93711.39
2022-10-23T23:17:11.686Z,93704.83
2022-10-23T23:22:18.697Z,93703.98
2022-10-23T23:27:25.507Z,93701.41
2022-10-23T23:32:32.364Z,93703.13
2022-10-23T23:37:39.658Z,93696.73
2022-10-23T23:42:47.412Z,93701.95
2022-10-23T23:47:54.611Z,93701.50
2022-10-23T23:53:01.587Z,93714.86
2022-10-23T23:58:08.653Z,93712.68
